This is the latest recevied weather packets stored in our database for station/object KQ4OSL. If no packets are shown the sender has not sent any weather packets the latest 10 day(s).
| Time | Temp. | Humidity | Pressure | Rain* | Wind** | Luminosity | Snow |
|---|---|---|---|---|---|---|---|
| 1778004187 | 23.33° C | 47% | 1017.2 hPa | 0 mm | - | 695 W/m² | - |
| 1778003884 | 23.33° C | 50% | 1017.2 hPa | 0 mm | - | 705 W/m² | - |
| 1778003580 | 22.78° C | 48% | 1017.3 hPa | 0 mm | - | 716 W/m² | - |
| 1778003276 | 23.89° C | 48% | 1017.2 hPa | 0 mm | - | 699 W/m² | - |
| 1778002974 | 23.33° C | 47% | 1017.4 hPa | 0 mm | - | 740 W/m² | - |
| 1778002670 | 22.78° C | 47% | 1017.5 hPa | 0 mm | - | 760 W/m² | - |
| 1778002366 | 22.78° C | 48% | 1017.6 hPa | 0 mm | - | 756 W/m² | - |
| 1778002063 | 23.33° C | 49% | 1017.7 hPa | 0 mm | - | 763 W/m² | - |
| 1778001760 | 22.78° C | 51% | 1017.5 hPa | 0 mm | - | 724 W/m² | - |
| 1778001460 | 22.78° C | 48% | 1017.7 hPa | 0 mm | - | 758 W/m² | - |
| 1778001157 | 22.78° C | 49% | 1017.7 hPa | 0 mm | - | 772 W/m² | - |
| 1778000854 | 22.78° C | 47% | 1017.5 hPa | 0 mm | - | 770 W/m² | - |
| 1778000551 | 22.78° C | 51% | 1017.4 hPa | 0 mm | - | 767 W/m² | - |
| 1778000246 | 22.78° C | 50% | 1017.5 hPa | 0 mm | - | 765 W/m² | - |
| 1777999943 | 22.78° C | 47% | 1017.7 hPa | 0 mm | - | 768 W/m² | - |
| 1777999638 | 22.78° C | 50% | 1017.7 hPa | 0 mm | - | 759 W/m² | - |
| 1777999336 | 22.78° C | 50% | 1017.7 hPa | 0 mm | - | 757 W/m² | - |
| 1777999034 | 22.78° C | 51% | 1017.7 hPa | 0 mm | - | 754 W/m² | - |
| 1777998732 | 22.22° C | 53% | 1018.1 hPa | 0 mm | - | 755 W/m² | - |
| 1777998429 | 22.22° C | 53% | 1018.1 hPa | 0 mm | - | 754 W/m² | - |
| 1777998126 | 22.22° C | 52% | 1017.9 hPa | 0 mm | - | 749 W/m² | - |
| 1777997823 | 21.67° C | 54% | 1017.9 hPa | 0 mm | - | 742 W/m² | - |
| 1777997520 | 22.22° C | 54% | 1017.6 hPa | 0 mm | - | 739 W/m² | - |
| 1777997218 | 22.22° C | 54% | 1017.6 hPa | 0 mm | - | 729 W/m² | - |
| 1777996915 | 21.67° C | 54% | 1017.4 hPa | 0 mm | - | 723 W/m² | - |
* Rain latest hour (hover to see other rain measurements)
** Current wind speed in m/s (hover to see current wind gust speed)